Time;durP1;ratioP1;P1;durP2;ratioP2;P2;SDS_P1;SDS_P2;PMS_P1;PMS_P2;Temp;Humidity;BMP_temperature;BMP_pressure;BME280_temperature;BME280_humidity;BME280_pressure;Samples;Min_cycle;Max_cycle;Signal;HPM_P1;HPM_P2
2023/09/20 00:01:40;;;;;;;2.80;1.17;;;;;;;19.27;68.31;95395.72;5072886;28;20225;-83
2023/09/20 00:04:07;;;;;;;2.10;1.10;;;;;;;19.22;68.80;95402.69;5074163;28;20229;-84
2023/09/20 00:06:33;;;;;;;1.30;1.13;;;;;;;19.21;68.23;95394.06;5074110;28;20205;-84
2023/09/20 00:09:00;;;;;;;1.48;1.10;;;;;;;19.21;68.43;95390.66;5073607;28;20204;-83
2023/09/20 00:11:27;;;;;;;1.25;1.15;;;;;;;19.15;69.17;95413.28;5071203;28;20213;-84
2023/09/20 00:13:53;;;;;;;1.88;0.93;;;;;;;19.18;68.62;95409.41;5053879;28;20570;-83
2023/09/20 00:16:22;;;;;;;1.25;1.08;;;;;;;19.14;68.67;95406.47;5079330;28;20200;-84
2023/09/20 00:18:48;;;;;;;1.00;1.00;;;;;;;19.17;68.66;95400.78;5078213;28;20777;-84
2023/09/20 00:21:15;;;;;;;1.13;1.00;;;;;;;19.18;68.63;95391.94;5075161;28;20228;-84
2023/09/20 00:23:42;;;;;;;0.98;0.90;;;;;;;19.15;68.77;95404.66;5074261;28;20225;-84
2023/09/20 00:26:10;;;;;;;1.10;1.10;;;;;;;19.14;68.72;95411.69;5074595;28;20205;-83
2023/09/20 00:28:38;;;;;;;2.47;1.10;;;;;;;19.10;69.34;95421.00;5074965;28;20249;-84
2023/09/20 00:31:05;;;;;;;1.27;1.10;;;;;;;19.03;69.40;95427.41;5073779;28;20220;-84
2023/09/20 00:33:32;;;;;;;1.02;1.00;;;;;;;19.03;69.42;95420.38;5073530;28;20255;-84
2023/09/20 00:35:58;;;;;;;2.35;1.05;;;;;;;19.03;69.98;95435.22;5077213;28;20216;-83
2023/09/20 00:38:24;;;;;;;1.65;1.10;;;;;;;19.03;70.03;95436.03;5076956;28;20204;-83
2023/09/20 00:40:52;;;;;;;1.15;0.80;;;;;;;19.03;70.21;95427.41;5076867;28;20224;-85
2023/09/20 00:43:23;;;;;;;1.00;0.93;;;;;;;19.05;70.34;95431.34;5076631;28;20223;-84
2023/09/20 00:45:50;;;;;;;1.08;0.98;;;;;;;19.03;69.95;95435.22;5077159;28;20223;-84
2023/09/20 00:48:18;;;;;;;1.10;1.00;;;;;;;18.97;70.47;95435.13;5077972;28;20208;-83
2023/09/20 00:50:48;;;;;;;1.08;1.00;;;;;;;18.96;70.58;95440.56;5075728;28;20307;-83
2023/09/20 00:53:14;;;;;;;1.70;1.15;;;;;;;18.96;70.68;95445.78;5077255;28;20220;-84
2023/09/20 00:55:42;;;;;;;1.20;1.10;;;;;;;18.99;70.67;95445.34;5078019;28;20255;-84
2023/09/20 00:58:14;;;;;;;0.85;0.85;;;;;;;18.97;70.75;95444.78;5078567;28;20208;-84
2023/09/20 01:00:43;;;;;;;1.10;1.00;;;;;;;19.00;70.69;95441.72;5079212;28;20223;-84
2023/09/20 01:03:10;;;;;;;2.30;1.00;;;;;;;18.93;70.81;95447.06;5078264;28;20201;-83
2023/09/20 01:05:37;;;;;;;0.98;0.98;;;;;;;18.92;71.13;95458.50;5077633;28;20250;-83
2023/09/20 01:08:06;;;;;;;2.67;1.15;;;;;;;18.93;71.00;95451.47;5076562;28;20208;-84
2023/09/20 01:10:36;;;;;;;1.20;1.10;;;;;;;18.91;71.39;95469.19;5078091;28;20217;-84
2023/09/20 01:13:04;;;;;;;1.02;1.02;;;;;;;18.90;71.48;95460.56;5078073;28;20203;-84
2023/09/20 01:15:32;;;;;;;1.40;1.20;;;;;;;18.87;71.44;95460.22;5090180;28;20192;-84
2023/09/20 01:17:59;;;;;;;1.20;1.10;;;;;;;18.78;71.76;95462.41;5080463;28;20575;-83
2023/09/20 01:20:26;;;;;;;1.65;1.20;;;;;;;18.66;72.58;95494.75;5077764;28;20620;-84
2023/09/20 01:22:56;;;;;;;1.80;0.90;;;;;;;18.60;72.72;95507.69;5074938;28;20196;-83
2023/09/20 01:25:24;;;;;;;0.90;0.90;;;;;;;18.48;73.43;95514.66;5076988;28;20286;-83
2023/09/20 01:27:51;;;;;;;1.30;1.20;;;;;;;18.45;73.80;95530.78;5076971;28;20231;-84
2023/09/20 01:30:17;;;;;;;1.58;1.20;;;;;;;18.38;74.42;95543.13;5071703;28;20727;-84
2023/09/20 01:32:45;;;;;;;1.30;1.20;;;;;;;18.38;74.22;95542.34;5076967;28;20216;-84
2023/09/20 01:35:14;;;;;;;3.38;1.40;;;;;;;18.32;74.98;95562.28;5077261;28;20204;-83
2023/09/20 01:37:41;;;;;;;1.33;1.15;;;;;;;18.30;74.86;95559.88;5075810;28;20224;-84
2023/09/20 01:40:15;;;;;;;1.30;1.17;;;;;;;18.25;75.42;95567.63;5075336;28;20231;-84
2023/09/20 01:42:43;;;;;;;1.38;1.10;;;;;;;18.18;75.88;95579.94;5076224;28;20496;-84
2023/09/20 01:45:14;;;;;;;1.58;1.20;;;;;;;18.08;76.96;95604.97;5075705;28;20270;-84
2023/09/20 01:47:42;;;;;;;1.75;1.13;;;;;;;18.05;77.22;95597.59;5076877;28;20203;-84
2023/09/20 01:50:10;;;;;;;1.33;1.23;;;;;;;18.13;76.98;95595.44;5076418;28;20220;-83
2023/09/20 01:52:37;;;;;;;1.40;1.30;;;;;;;18.20;76.53;95584.94;5076820;28;20207;-84
2023/09/20 01:55:04;;;;;;;1.80;1.13;;;;;;;18.09;76.99;95591.69;5075143;28;20580;-84
2023/09/20 01:57:31;;;;;;;1.13;1.10;;;;;;;18.17;77.11;95601.81;5076073;28;20645;-84
2023/09/20 01:59:58;;;;;;;1.17;1.00;;;;;;;18.18;77.00;95585.16;5076770;28;20220;-83
2023/09/20 02:02:24;;;;;;;1.63;0.93;;;;;;;18.24;76.60;95584.25;5076338;28;20228;-84
2023/09/20 02:04:51;;;;;;;1.20;1.10;;;;;;;18.19;77.01;95589.34;5076208;28;20252;-83
2023/09/20 02:07:17;;;;;;;1.70;1.20;;;;;;;18.20;77.23;95584.94;5076851;28;20216;-84
2023/09/20 02:09:45;;;;;;;1.17;1.05;;;;;;;18.21;77.25;95587.31;5085372;28;20193;-84
2023/09/20 02:12:12;;;;;;;1.00;0.90;;;;;;;18.20;77.03;95585.72;5075790;28;20215;-84
2023/09/20 02:14:41;;;;;;;2.15;1.10;;;;;;;18.21;77.25;95586.53;5076711;28;20615;-84
2023/09/20 02:17:07;;;;;;;1.90;1.05;;;;;;;18.26;76.95;95576.22;5076378;28;20205;-83
2023/09/20 02:19:34;;;;;;;1.27;1.13;;;;;;;18.28;77.08;95579.38;5076122;28;20204;-84
2023/09/20 02:22:01;;;;;;;2.05;1.20;;;;;;;18.26;77.74;95594.47;5075368;28;20220;-84
2023/09/20 02:24:28;;;;;;;1.85;1.25;;;;;;;18.30;77.29;95592.97;5075811;28;20655;-84
2023/09/20 02:26:54;;;;;;;1.35;1.17;;;;;;;18.24;77.76;95597.31;5074249;28;20200;-84
2023/09/20 02:29:22;;;;;;;0.93;0.90;;;;;;;18.16;77.65;95587.19;5075453;28;20213;-83
2023/09/20 02:31:50;;;;;;;0.95;0.95;;;;;;;18.15;77.62;95596.03;5075835;28;20251;-83
2023/09/20 02:34:16;;;;;;;1.08;1.00;;;;;;;18.18;77.08;95582.53;5075835;28;20201;-84
2023/09/20 02:36:44;;;;;;;1.23;1.13;;;;;;;18.23;76.48;95568.84;5075726;28;20203;-83
2023/09/20 02:39:15;;;;;;;1.13;1.08;;;;;;;18.23;75.91;95550.59;5075079;28;20197;-84
2023/09/20 02:41:41;;;;;;;1.10;1.00;;;;;;;18.29;75.31;95534.03;5074979;28;20220;-84
2023/09/20 02:44:08;;;;;;;1.48;1.10;;;;;;;18.26;75.33;95522.28;5073279;28;20205;-84
2023/09/20 02:46:34;;;;;;;1.00;1.00;;;;;;;18.22;75.50;95531.56;5075013;28;20204;-84
2023/09/20 02:49:03;;;;;;;1.08;1.08;;;;;;;18.11;76.40;95537.53;5075726;28;20200;-83
2023/09/20 02:51:30;;;;;;;1.15;0.90;;;;;;;18.13;75.92;95535.50;5075299;28;20597;-84
2023/09/20 02:53:57;;;;;;;1.50;1.00;;;;;;;18.14;75.71;95525.88;5075311;28;20216;-84
2023/09/20 02:56:24;;;;;;;0.98;0.98;;;;;;;18.04;76.36;95525.66;5075575;28;20193;-84
2023/09/20 02:58:52;;;;;;;1.08;1.00;;;;;;;18.03;76.42;95532.66;5074899;28;20212;-84
2023/09/20 03:01:20;;;;;;;1.10;1.00;;;;;;;18.07;76.20;95528.59;5076770;28;20235;-83
2023/09/20 03:03:46;;;;;;;2.35;1.00;;;;;;;17.99;76.34;95533.34;5075625;28;20243;-84
2023/09/20 03:06:14;;;;;;;1.17;1.10;;;;;;;17.94;77.18;95547.03;5086620;28;20303;-84
2023/09/20 03:08:44;;;;;;;2.45;1.30;;;;;;;17.90;77.68;95559.69;5085954;28;20189;-84
2023/09/20 03:11:11;;;;;;;1.73;1.20;;;;;;;17.87;77.90;95564.56;5076207;28;20304;-83
2023/09/20 03:13:38;;;;;;;1.13;1.00;;;;;;;17.87;77.62;95551.56;5075766;28;20214;-84
2023/09/20 03:16:05;;;;;;;1.42;1.30;;;;;;;17.84;78.00;95560.59;5074799;28;20201;-83
2023/09/20 03:18:33;;;;;;;1.30;1.10;;;;;;;17.88;77.41;95550.53;5075583;28;20795;-84
2023/09/20 03:21:05;;;;;;;1.60;1.10;;;;;;;17.88;77.57;95553.94;5076313;28;20224;-84
2023/09/20 03:23:33;;;;;;;1.30;1.20;;;;;;;17.91;77.17;95547.47;5076330;28;20235;-84
2023/09/20 03:25:59;;;;;;;1.48;1.10;;;;;;;17.86;77.28;95548.16;5076147;28;20244;-84
2023/09/20 03:28:26;;;;;;;1.23;1.10;;;;;;;17.90;76.84;95531.03;5075901;28;20201;-83
2023/09/20 03:30:56;;;;;;;1.35;1.17;;;;;;;17.85;76.60;95533.53;5074840;28;20235;-84
2023/09/20 03:33:22;;;;;;;2.50;1.10;;;;;;;17.83;76.83;95535.56;5073689;28;20257;-84
2023/09/20 03:35:49;;;;;;;1.27;1.10;;;;;;;17.75;77.47;95543.69;5075494;28;20287;-83
2023/09/20 03:38:15;;;;;;;2.53;1.20;;;;;;;17.69;78.14;95557.63;5074331;28;20602;-84
2023/09/20 03:40:43;;;;;;;1.30;1.20;;;;;;;17.58;78.88;95572.13;5074822;28;20248;-83
2023/09/20 03:43:10;;;;;;;1.20;1.10;;;;;;;17.61;78.63;95563.09;5074550;28;20203;-83
2023/09/20 03:45:36;;;;;;;1.30;1.20;;;;;;;17.70;78.21;95555.81;5074412;28;20221;-84
2023/09/20 03:48:03;;;;;;;1.15;1.00;;;;;;;17.80;77.48;95538.63;5072538;28;20239;-84
2023/09/20 03:50:29;;;;;;;1.45;1.10;;;;;;;17.84;77.23;95531.94;5074497;28;20224;-84
2023/09/20 03:52:56;;;;;;;1.30;1.20;;;;;;;17.83;76.95;95529.56;5073631;28;20212;-83
2023/09/20 03:55:23;;;;;;;1.42;1.33;;;;;;;17.80;76.85;95528.19;5076334;28;20193;-83
2023/09/20 03:57:51;;;;;;;3.33;1.27;;;;;;;17.76;77.01;95524.44;5087479;28;20231;-84
2023/09/20 04:00:24;;;;;;;2.65;1.30;;;;;;;17.74;77.21;95531.69;5077472;28;20221;-84
2023/09/20 04:02:53;;;;;;;1.63;1.20;;;;;;;17.78;76.85;95532.03;5086731;28;20196;-84
2023/09/20 04:05:20;;;;;;;2.92;1.42;;;;;;;17.75;76.89;95527.25;5074050;28;20217;-84
2023/09/20 04:07:47;;;;;;;2.00;1.30;;;;;;;17.74;76.90;95529.06;5082491;28;20193;-84
2023/09/20 04:10:15;;;;;;;1.50;1.40;;;;;;;17.68;77.26;95532.59;5077655;28;20256;-83
2023/09/20 04:12:42;;;;;;;2.35;1.58;;;;;;;17.67;77.56;95538.81;5077700;28;20284;-84
2023/09/20 04:15:11;;;;;;;1.52;1.42;;;;;;;17.68;77.32;95548.22;5077118;28;20201;-83
2023/09/20 04:17:38;;;;;;;2.85;1.27;;;;;;;17.63;77.55;95545.44;5078048;28;20196;-84
2023/09/20 04:20:06;;;;;;;1.42;1.30;;;;;;;17.61;77.53;95545.66;5076776;28;20220;-84
2023/09/20 04:22:32;;;;;;;1.50;1.40;;;;;;;17.55;77.99;95556.94;5077373;28;20204;-84
2023/09/20 04:24:59;;;;;;;3.10;1.20;;;;;;;17.65;77.69;95546.03;5090881;28;20216;-83
2023/09/20 04:27:25;;;;;;;1.55;1.45;;;;;;;17.69;77.46;95539.38;5097933;28;20223;-84
2023/09/20 04:29:53;;;;;;;2.00;1.20;;;;;;;17.67;77.10;95531.00;5094659;28;20204;-83
2023/09/20 04:32:21;;;;;;;1.45;1.23;;;;;;;17.60;77.62;95544.06;5057696;28;20201;-84
2023/09/20 04:34:49;;;;;;;1.48;1.38;;;;;;;17.48;78.39;95558.06;5056669;28;20259;-83
2023/09/20 04:37:16;;;;;;;2.85;1.40;;;;;;;17.42;78.59;95566.75;5071597;28;20248;-83
2023/09/20 04:39:43;;;;;;;1.55;1.20;;;;;;;17.40;78.81;95560.97;5077599;28;20201;-82
2023/09/20 04:42:11;;;;;;;1.55;1.30;;;;;;;17.53;78.65;95555.56;5076975;28;20200;-83
2023/09/20 04:44:38;;;;;;;1.27;1.10;;;;;;;17.57;78.24;95548.91;5077987;28;20519;-83
2023/09/20 04:47:05;;;;;;;2.10;1.70;;;;;;;17.65;77.68;95537.44;5075635;28;20865;-83
2023/09/20 04:49:33;;;;;;;1.83;1.50;;;;;;;17.72;77.03;95527.72;5075509;28;20228;-84
2023/09/20 04:52:00;;;;;;;1.10;1.00;;;;;;;17.73;76.98;95522.28;5074220;28;20224;-83
2023/09/20 04:54:27;;;;;;;1.55;1.25;;;;;;;17.76;76.47;95511.41;5075718;28;20209;-84
2023/09/20 04:56:53;;;;;;;1.80;1.25;;;;;;;17.76;76.62;95518.44;5082709;28;20203;-84
2023/09/20 04:59:20;;;;;;;2.42;1.45;;;;;;;17.74;76.98;95521.25;5088133;28;20200;-83
2023/09/20 05:01:47;;;;;;;3.78;2.90;;;;;;;17.71;77.15;95521.69;5096921;28;20216;-84
2023/09/20 05:04:18;;;;;;;2.70;2.50;;;;;;;17.79;76.89;95521.41;5097307;28;20706;-84
2023/09/20 05:06:46;;;;;;;2.20;1.90;;;;;;;17.73;76.77;95521.47;5097049;28;20660;-84
2023/09/20 05:09:12;;;;;;;2.22;1.70;;;;;;;17.74;76.85;95525.69;5080638;28;20201;-83
2023/09/20 05:11:39;;;;;;;1.67;1.30;;;;;;;17.80;76.68;95519.59;5076590;28;20225;-84
2023/09/20 05:14:06;;;;;;;1.77;1.60;;;;;;;17.81;76.33;95516.75;5077140;28;20299;-83
2023/09/20 05:16:32;;;;;;;6.78;2.95;;;;;;;17.79;76.50;95523.22;5076929;28;20662;-83
2023/09/20 05:18:59;;;;;;;6.35;2.53;;;;;;;17.77;77.00;95531.25;5076166;28;20200;-83
2023/09/20 05:21:26;;;;;;;4.55;2.30;;;;;;;17.75;77.31;95537.69;5076797;28;20221;-83
2023/09/20 05:23:54;;;;;;;4.53;2.20;;;;;;;17.77;76.71;95530.44;5074650;28;20295;-84
2023/09/20 05:26:21;;;;;;;4.72;4.32;;;;;;;17.86;75.94;95511.69;5075687;28;20236;-83
2023/09/20 05:28:48;;;;;;;7.95;6.60;;;;;;;17.92;75.82;95517.78;5075405;28;20258;-84
2023/09/20 05:31:15;;;;;;;9.35;3.10;;;;;;;17.99;75.29;95507.28;5076210;28;20223;-84
2023/09/20 05:33:42;;;;;;;2.60;2.17;;;;;;;18.01;74.88;95490.41;5076370;28;20213;-84
2023/09/20 05:36:09;;;;;;;2.08;1.88;;;;;;;18.05;74.27;95469.91;5075482;28;20266;-83
2023/09/20 05:38:35;;;;;;;1.52;1.35;;;;;;;18.06;73.82;95461.09;5075648;28;20211;-83
2023/09/20 05:41:03;;;;;;;2.58;1.60;;;;;;;18.10;73.84;95470.81;5074187;28;20298;-83
2023/09/20 05:43:30;;;;;;;3.00;1.80;;;;;;;18.09;74.29;95474.44;5074729;28;20205;-83
2023/09/20 05:45:59;;;;;;;3.50;1.67;;;;;;;18.04;75.25;95494.38;5075372;28;20220;-83
2023/09/20 05:48:26;;;;;;;2.33;1.38;;;;;;;18.09;75.05;95495.28;5075711;28;20205;-84
2023/09/20 05:50:54;;;;;;;3.53;1.67;;;;;;;18.10;74.35;95481.22;5075631;28;20220;-83
2023/09/20 05:53:21;;;;;;;2.97;1.58;;;;;;;18.16;74.47;95485.53;5078777;28;20201;-84
2023/09/20 05:55:47;;;;;;;1.67;1.50;;;;;;;18.19;74.00;95484.31;5087631;28;20279;-84
2023/09/20 05:58:15;;;;;;;2.17;1.33;;;;;;;18.19;74.04;95479.88;5074793;28;20205;-83
2023/09/20 06:00:42;;;;;;;2.75;1.83;;;;;;;18.23;74.10;95488.06;5074651;28;20315;-84
2023/09/20 06:03:11;;;;;;;4.80;2.25;;;;;;;18.24;73.93;95494.84;5074745;28;20725;-83
2023/09/20 06:05:38;;;;;;;3.25;1.90;;;;;;;18.29;74.36;95506.16;5060406;28;20227;-84
2023/09/20 06:08:05;;;;;;;4.25;2.88;;;;;;;18.30;75.00;95510.38;5063189;28;20208;-83
2023/09/20 06:10:32;;;;;;;3.30;2.25;;;;;;;18.27;74.74;95505.63;5074980;28;20224;-84
2023/09/20 06:12:59;;;;;;;2.58;1.98;;;;;;;18.29;73.81;95482.72;5072546;28;20201;-83
2023/09/20 06:15:27;;;;;;;2.70;1.70;;;;;;;18.37;73.82;95472.97;5074177;28;20205;-83
2023/09/20 06:17:53;;;;;;;1.83;1.30;;;;;;;18.39;73.40;95466.50;5074544;28;20208;-84
2023/09/20 06:20:20;;;;;;;2.30;2.08;;;;;;;18.45;73.41;95470.81;5076078;28;20282;-84
2023/09/20 06:22:48;;;;;;;2.97;2.20;;;;;;;18.63;72.91;95456.88;5075794;28;20213;-83
2023/09/20 06:25:16;;;;;;;3.45;1.90;;;;;;;18.81;72.22;95433.25;5076025;28;20811;-84
2023/09/20 06:27:42;;;;;;;1.60;1.40;;;;;;;19.07;71.10;95411.03;5076356;28;20209;-83
2023/09/20 06:30:12;;;;;;;1.75;1.52;;;;;;;19.31;70.18;95398.66;5074595;28;20225;-83
2023/09/20 06:32:40;;;;;;;5.35;2.03;;;;;;;19.49;69.05;95356.66;5075990;28;20246;-83
2023/09/20 06:35:07;;;;;;;2.58;1.80;;;;;;;19.63;68.81;95351.94;5076103;28;20558;-84
2023/09/20 06:37:35;;;;;;;1.60;1.50;;;;;;;19.87;68.04;95323.81;5074976;28;20201;-84
2023/09/20 06:40:04;;;;;;;23.10;20.75;;;;;;;20.02;66.61;95282.97;5074885;28;20278;-84
2023/09/20 06:42:30;;;;;;;6.20;4.85;;;;;;;20.21;65.66;95253.91;5074758;28;20197;-83
2023/09/20 06:44:57;;;;;;;3.17;1.65;;;;;;;20.39;64.86;95231.94;5072552;28;20203;-84
2023/09/20 06:47:23;;;;;;;3.00;1.20;;;;;;;20.59;64.24;95217.22;5074956;28;20229;-83
2023/09/20 06:49:52;;;;;;;1.60;1.48;;;;;;;20.77;63.60;95184.69;5080680;28;20196;-84
2023/09/20 06:52:18;;;;;;;3.05;2.15;;;;;;;20.81;63.09;95172.66;5087146;28;20201;-84
2023/09/20 06:54:45;;;;;;;2.38;1.45;;;;;;;20.97;62.86;95145.53;5094872;28;20253;-83
2023/09/20 06:57:17;;;;;;;1.65;1.42;;;;;;;21.16;62.43;95145.16;5094586;28;20676;-83
2023/09/20 06:59:45;;;;;;;2.30;1.35;;;;;;;21.27;62.16;95123.25;5094890;28;20195;-83
2023/09/20 07:02:13;;;;;;;2.40;1.40;;;;;;;21.47;61.95;95112.88;5078870;28;20201;-83
2023/09/20 07:04:40;;;;;;;1.90;1.25;;;;;;;21.62;61.32;95099.03;5073716;28;20197;-84
2023/09/20 07:07:08;;;;;;;4.63;1.35;;;;;;;21.86;60.34;95060.06;5075298;28;20252;-84
2023/09/20 07:09:35;;;;;;;1.63;1.30;;;;;;;21.96;59.68;95021.50;5074908;28;20199;-84
2023/09/20 07:12:03;;;;;;;2.05;1.40;;;;;;;22.13;58.97;94994.31;5075103;28;20617;-84
2023/09/20 07:14:31;;;;;;;1.77;1.35;;;;;;;22.34;58.99;94986.13;5074612;28;20227;-83
2023/09/20 07:16:58;;;;;;;1.40;1.30;;;;;;;22.48;58.54;94977.75;5072580;28;20673;-83
2023/09/20 07:19:29;;;;;;;1.95;1.10;;;;;;;22.65;58.41;94957.22;5074232;28;20240;-84
2023/09/20 07:21:56;;;;;;;1.63;1.20;;;;;;;22.74;57.33;94901.28;5074047;28;20220;-84
2023/09/20 07:24:24;;;;;;;3.17;1.40;;;;;;;22.90;57.00;94893.38;5073038;28;20708;-83
2023/09/20 07:26:52;;;;;;;3.17;1.40;;;;;;;23.04;56.31;94876.75;5073577;28;20648;-84
2023/09/20 07:29:21;;;;;;;2.20;2.00;;;;;;;23.18;56.43;94886.66;5075192;28;20233;-83
2023/09/20 07:31:48;;;;;;;5.43;3.85;;;;;;;23.12;57.26;94919.25;5074101;28;20254;-84
2023/09/20 07:34:16;;;;;;;5.80;4.55;;;;;;;23.28;57.14;94921.53;5072815;28;20204;-84
2023/09/20 07:36:43;;;;;;;1.85;1.70;;;;;;;23.22;55.84;94843.81;5074182;28;20274;-84
2023/09/20 07:39:12;;;;;;;1.50;1.40;;;;;;;23.34;54.41;94780.41;5073026;28;20211;-84
2023/09/20 07:41:44;;;;;;;3.08;2.78;;;;;;;23.45;53.93;94737.22;5073428;28;20274;-84
2023/09/20 07:44:12;;;;;;;2.55;1.50;;;;;;;23.60;54.53;94775.75;5074337;28;20205;-83
2023/09/20 07:46:39;;;;;;;5.28;2.10;;;;;;;23.95;54.05;94764.84;5081476;28;20758;-84
2023/09/20 07:49:09;;;;;;;3.05;1.65;;;;;;;23.95;51.56;94657.03;5088580;28;20200;-83
2023/09/20 07:51:36;;;;;;;2.78;1.60;;;;;;;23.98;51.79;94639.91;5074584;28;20224;-84
2023/09/20 07:54:06;;;;;;;2.78;1.60;;;;;;;24.06;50.99;94610.34;5074398;28;20576;-83
2023/09/20 07:56:34;;;;;;;3.85;1.70;;;;;;;24.27;51.13;94597.69;5074658;28;20201;-83
2023/09/20 07:59:03;;;;;;;2.13;1.83;;;;;;;24.37;50.35;94563.34;5074402;28;20193;-85
2023/09/20 08:01:30;;;;;;;3.28;1.88;;;;;;;24.43;50.20;94549.84;5072245;28;20217;-84
2023/09/20 08:03:58;;;;;;;5.07;2.30;;;;;;;24.58;49.93;94529.59;5073267;28;20200;-83
2023/09/20 08:06:26;;;;;;;4.82;2.22;;;;;;;24.70;50.52;94554.38;5071006;28;20763;-83
2023/09/20 08:08:52;;;;;;;2.83;2.03;;;;;;;24.93;50.68;94609.81;5073395;28;20201;-84
2023/09/20 08:11:19;;;;;;;6.53;1.70;;;;;;;24.99;49.11;94492.78;5072416;28;20228;-83
2023/09/20 08:13:46;;;;;;;3.28;2.97;;;;;;;25.06;48.98;94499.22;5071593;28;20574;-83
2023/09/20 08:16:15;;;;;;;8.68;6.10;;;;;;;25.25;48.93;94485.94;5072945;28;20196;-84
2023/09/20 08:21:26;;;;;;;3.25;1.67;;;;;;;25.18;48.56;94447.91;5072407;28;20329;-83
2023/09/20 08:59:52;;;;;;;2.47;1.60;;;;;;;26.95;44.49;94281.69;5055901;28;20247;-84
2023/09/20 09:02:19;;;;;;;5.40;1.58;;;;;;;27.03;45.22;94297.53;5076593;28;20200;-84
2023/09/20 09:04:52;;;;;;;5.00;1.80;;;;;;;26.77;44.31;94239.41;5076968;28;20693;-84
2023/09/20 09:07:18;;;;;;;3.35;1.70;;;;;;;26.49;44.99;94273.25;5077528;28;20333;-82
2023/09/20 09:09:46;;;;;;;2.42;1.60;;;;;;;26.45;45.41;94309.25;5075653;28;20196;-84
2023/09/20 09:12:13;;;;;;;2.20;1.70;;;;;;;26.39;45.50;94326.31;5076542;28;20201;-83
2023/09/20 09:14:41;;;;;;;2.17;1.60;;;;;;;26.57;45.05;94300.72;5076924;28;20209;-84
2023/09/20 09:17:10;;;;;;;2.40;1.50;;;;;;;26.60;45.86;94355.56;5076274;28;20578;-84
2023/09/20 09:19:38;;;;;;;2.95;1.70;;;;;;;26.66;45.52;94327.94;5076692;28;20248;-83
2023/09/20 09:22:07;;;;;;;2.00;1.50;;;;;;;26.48;46.32;94344.81;5076891;28;20250;-84
2023/09/20 09:24:44;;;;;;;1.77;1.40;;;;;;;26.23;45.71;94317.22;5076438;28;20269;-84
2023/09/20 09:27:11;;;;;;;3.55;1.50;;;;;;;26.17;45.52;94310.53;5074292;28;20224;-84
2023/09/20 09:29:38;;;;;;;4.82;1.50;;;;;;;26.15;46.53;94352.28;5075709;28;20212;-83
2023/09/20 09:32:05;;;;;;;3.33;1.83;;;;;;;26.24;46.26;94366.28;5075600;28;20228;-84
2023/09/20 09:34:32;;;;;;;1.35;1.25;;;;;;;26.37;45.90;94336.41;5075104;28;20212;-84
2023/09/20 09:36:58;;;;;;;3.40;1.40;;;;;;;26.47;46.09;94338.00;5075929;28;20678;-84
2023/09/20 09:39:26;;;;;;;1.92;1.30;;;;;;;26.11;47.33;94402.25;5083094;28;20212;-83
2023/09/20 09:41:54;;;;;;;1.92;1.40;;;;;;;26.15;47.14;94403.22;5088326;28;20219;-84
2023/09/20 09:44:22;;;;;;;1.55;1.30;;;;;;;26.24;46.89;94370.78;5074807;28;20197;-84
2023/09/20 09:46:49;;;;;;;1.27;1.17;;;;;;;26.18;46.96;94380.69;5074854;28;20698;-83
2023/09/20 09:49:18;;;;;;;1.20;1.10;;;;;;;26.04;46.59;94340.44;5075161;28;20665;-84
2023/09/20 09:51:46;;;;;;;3.22;1.10;;;;;;;26.03;46.21;94315.13;5073994;28;20221;-84
2023/09/20 09:54:15;;;;;;;1.27;1.17;;;;;;;25.95;46.58;94339.63;5072897;28;20599;-84
2023/09/20 09:56:43;;;;;;;1.10;1.00;;;;;;;26.10;46.50;94336.59;5080645;28;20270;-83
2023/09/20 09:59:10;;;;;;;1.30;1.20;;;;;;;26.26;46.30;94319.25;5072755;28;20200;-83
2023/09/20 10:01:38;;;;;;;2.60;1.10;;;;;;;26.45;45.97;94313.75;5072920;28;20270;-83
2023/09/20 10:04:07;;;;;;;1.40;1.10;;;;;;;26.42;46.08;94312.50;5055273;28;20237;-84
2023/09/20 10:06:37;;;;;;;1.73;1.30;;;;;;;26.13;46.40;94315.66;5057041;28;20275;-85
2023/09/20 10:09:10;;;;;;;1.20;1.10;;;;;;;26.03;46.22;94301.94;5052956;28;20733;-86
2023/09/20 10:11:37;;;;;;;1.20;1.10;;;;;;;25.93;46.08;94299.59;5054134;28;20218;-85
2023/09/20 10:14:21;;;;;;;2.40;1.38;;;;;;;25.64;46.65;94297.41;5060250;28;20421;-84
2023/09/20 10:16:49;;;;;;;13.18;11.93;;;;;;;25.55;47.01;94344.03;5077911;28;20224;-83
2023/09/20 10:19:16;;;;;;;2.22;1.27;;;;;;;25.36;47.71;94367.94;5081302;28;20197;-83
2023/09/20 10:22:02;;;;;;;1.45;1.30;;;;;;;25.32;48.10;94373.00;5081427;28;20240;-84
2023/09/20 10:24:29;;;;;;;1.38;1.27;;;;;;;25.38;47.86;94382.38;5079309;28;20201;-84
2023/09/20 10:27:00;;;;;;;1.48;1.00;;;;;;;25.50;47.37;94357.31;5079059;28;20231;-84
2023/09/20 10:29:32;;;;;;;1.40;1.30;;;;;;;25.36;47.60;94367.94;5078220;28;20226;-84
2023/09/20 10:32:08;;;;;;;1.30;1.20;;;;;;;25.28;48.07;94385.22;5075642;28;20247;-84
2023/09/20 10:34:37;;;;;;;1.50;1.40;;;;;;;25.40;48.01;94395.25;5082177;28;20199;-87
2023/09/20 10:37:08;;;;;;;2.03;1.50;;;;;;;25.43;47.15;94339.28;5083610;28;20196;-84
2023/09/20 10:39:34;;;;;;;1.20;1.00;;;;;;;25.35;47.55;94342.66;5091817;28;20204;-84
2023/09/20 10:42:10;;;;;;;1.30;1.20;;;;;;;25.31;47.68;94346.94;5092788;28;20235;-84
2023/09/20 10:44:40;;;;;;;1.13;1.13;;;;;;;25.33;48.22;94352.72;5076982;28;20200;-84
2023/09/20 10:47:11;;;;;;;5.35;4.93;;;;;;;25.58;48.17;94364.53;5074344;28;20216;-85
2023/09/20 10:49:42;;;;;;;2.55;2.35;;;;;;;25.61;47.13;94305.91;5074601;28;20216;-84
2023/09/20 10:52:08;;;;;;;3.03;1.00;;;;;;;25.52;47.08;94316.41;5077575;28;20589;-83
2023/09/20 10:54:36;;;;;;;1.52;1.20;;;;;;;25.55;47.18;94313.19;5079092;28;20207;-82
2023/09/20 10:57:09;;;;;;;1.20;1.10;;;;;;;25.70;47.39;94325.22;5075859;28;20407;-84
2023/09/20 10:59:38;;;;;;;1.10;1.00;;;;;;;25.58;46.67;94280.94;5074131;28;20262;-84
2023/09/20 11:02:08;;;;;;;2.13;0.95;;;;;;;25.70;46.69;94285.69;5074990;28;20400;-82
2023/09/20 11:04:35;;;;;;;1.70;1.40;;;;;;;25.62;46.43;94260.81;5072772;28;20211;-83
2023/09/20 11:07:02;;;;;;;1.15;1.05;;;;;;;25.53;45.32;94190.66;5074656;28;20229;-83
2023/09/20 11:09:33;;;;;;;1.40;1.10;;;;;;;25.64;46.36;94231.50;5074208;28;20196;-83
2023/09/20 11:12:04;;;;;;;1.25;1.15;;;;;;;25.81;46.01;94213.13;5075325;28;20221;-83
2023/09/20 11:14:33;;;;;;;1.20;1.10;;;;;;;25.75;45.34;94162.41;5074214;28;20213;-83
2023/09/20 11:17:01;;;;;;;2.10;1.08;;;;;;;25.67;45.44;94188.72;5074872;28;20223;-84
2023/09/20 11:19:29;;;;;;;1.10;1.00;;;;;;;25.52;45.31;94168.81;5073287;28;20197;-84
2023/09/20 11:21:58;;;;;;;1.17;1.08;;;;;;;25.47;46.06;94184.75;5076192;28;20220;-84
2023/09/20 11:24:25;;;;;;;1.20;1.10;;;;;;;25.39;46.02;94188.91;5076256;28;20196;-84
2023/09/20 11:26:53;;;;;;;1.10;1.00;;;;;;;25.46;45.47;94172.66;5076801;28;20201;-84
2023/09/20 11:29:20;;;;;;;1.73;1.10;;;;;;;25.60;46.56;94233.16;5076961;28;20201;-83
2023/09/20 11:31:48;;;;;;;1.50;1.15;;;;;;;25.49;45.17;94135.16;5084898;28;20217;-84
2023/09/20 11:34:17;;;;;;;1.10;1.00;;;;;;;25.38;45.50;94153.09;5094471;28;20196;-83
2023/09/20 11:36:46;;;;;;;1.15;1.02;;;;;;;25.36;45.80;94165.03;5077690;28;20228;-84
2023/09/20 11:39:14;;;;;;;1.58;1.10;;;;;;;25.40;45.30;94158.06;5075406;28;20551;-84
2023/09/20 11:41:43;;;;;;;1.02;1.02;;;;;;;25.54;45.56;94161.38;5075741;28;20275;-84
2023/09/20 11:44:10;;;;;;;3.08;2.10;;;;;;;25.66;45.84;94182.69;5074899;28;20193;-84
2023/09/20 11:46:36;;;;;;;2.00;1.50;;;;;;;25.90;45.87;94206.03;5075571;28;20201;-83
2023/09/20 11:49:04;;;;;;;1.23;1.13;;;;;;;26.01;45.51;94194.09;5075523;28;20244;-84
2023/09/20 11:51:34;;;;;;;1.92;1.20;;;;;;;26.19;46.63;94228.44;5073437;28;20776;-84
2023/09/20 11:54:01;;;;;;;2.72;1.00;;;;;;;26.36;45.57;94196.84;5075800;28;20204;-83
2023/09/20 11:56:29;;;;;;;1.20;1.10;;;;;;;26.27;45.14;94153.78;5075668;28;20213;-83
2023/09/20 11:58:59;;;;;;;1.23;1.10;;;;;;;26.30;45.43;94159.25;5073910;28;20200;-83
2023/09/20 12:01:29;;;;;;;1.15;1.15;;;;;;;26.07;44.70;94131.41;5055585;28;20225;-83
2023/09/20 12:03:55;;;;;;;1.30;1.20;;;;;;;26.12;45.74;94147.09;5055341;28;20601;-83
2023/09/20 12:06:22;;;;;;;1.05;1.00;;;;;;;26.30;45.58;94175.09;5056089;28;20197;-83
2023/09/20 12:08:50;;;;;;;2.15;1.30;;;;;;;26.48;45.63;94184.56;5068743;28;20216;-84
2023/09/20 12:11:17;;;;;;;2.10;1.20;;;;;;;26.48;45.72;94152.13;5076450;28;20240;-84
2023/09/20 12:13:45;;;;;;;1.88;1.25;;;;;;;26.52;45.55;94168.13;5074940;28;20602;-84
2023/09/20 12:16:12;;;;;;;1.73;1.02;;;;;;;26.60;45.34;94164.69;5076505;28;20208;-84